createdAt,value
2023-04-28T00:01:46.174Z,6.90
2023-04-28T00:04:13.418Z,6.90
2023-04-28T00:06:41.210Z,6.90
2023-04-28T00:09:11.294Z,6.90
2023-04-28T00:11:41.329Z,6.90
2023-04-28T00:14:08.256Z,6.90
2023-04-28T00:16:35.525Z,6.90
2023-04-28T00:19:02.511Z,6.90
2023-04-28T00:21:29.577Z,6.90
2023-04-28T00:23:57.054Z,6.90
2023-04-28T00:26:23.992Z,6.90
2023-04-28T00:28:51.054Z,6.90
2023-04-28T00:31:18.298Z,6.90
2023-04-28T00:33:45.882Z,6.90
2023-04-28T00:36:12.902Z,6.90
2023-04-28T00:38:39.943Z,6.90
2023-04-28T00:41:07.582Z,6.90
2023-04-28T00:43:45.739Z,6.90
2023-04-28T00:46:23.364Z,6.90
2023-04-28T00:48:50.872Z,6.90
2023-04-28T00:51:18.041Z,6.90
2023-04-28T00:53:45.693Z,6.90
2023-04-28T00:56:13.255Z,6.90
2023-04-28T00:58:40.543Z,6.90
2023-04-28T01:01:10.145Z,6.90
2023-04-28T01:03:40.039Z,6.90
2023-04-28T01:06:08.699Z,6.90
2023-04-28T01:08:37.785Z,6.90
2023-04-28T01:11:05.096Z,6.80
2023-04-28T01:13:32.024Z,6.80
2023-04-28T01:15:59.333Z,6.90
2023-04-28T01:18:26.603Z,6.90
2023-04-28T01:20:53.611Z,6.90
2023-04-28T01:23:20.670Z,6.90
2023-04-28T01:25:47.641Z,6.90
2023-04-28T01:28:14.542Z,6.80
2023-04-28T01:30:41.473Z,6.90
2023-04-28T01:33:08.610Z,6.90
2023-04-28T01:35:35.768Z,6.90
2023-04-28T01:38:03.295Z,6.90
2023-04-28T01:40:30.510Z,6.80
2023-04-28T01:42:57.851Z,6.80
2023-04-28T01:45:24.937Z,6.90
2023-04-28T01:47:52.327Z,6.90
2023-04-28T01:50:19.552Z,6.80
2023-04-28T01:52:46.509Z,6.80
2023-04-28T01:55:13.994Z,6.90
2023-04-28T01:57:41.077Z,6.90
2023-04-28T02:00:08.516Z,6.90
2023-04-28T02:02:35.656Z,6.90
2023-04-28T02:05:02.827Z,6.90
2023-04-28T02:07:29.968Z,6.80
2023-04-28T02:09:57.053Z,6.90
2023-04-28T02:12:24.093Z,6.90
2023-04-28T02:14:51.389Z,6.90
2023-04-28T02:17:18.506Z,6.90
2023-04-28T02:19:45.428Z,6.90
2023-04-28T02:22:12.441Z,6.80
2023-04-28T02:24:39.671Z,6.90
2023-04-28T02:27:06.641Z,6.90
2023-04-28T02:29:33.678Z,6.90
2023-04-28T02:32:00.669Z,6.90
2023-04-28T02:34:27.749Z,6.90
2023-04-28T02:36:54.709Z,6.90
2023-04-28T02:39:22.874Z,6.90
2023-04-28T02:41:49.828Z,6.90
2023-04-28T02:44:16.888Z,6.90
2023-04-28T02:46:44.024Z,6.90
2023-04-28T02:49:11.321Z,6.90
2023-04-28T02:51:38.411Z,6.90
2023-04-28T02:54:05.527Z,6.90
2023-04-28T02:56:33.338Z,6.90
2023-04-28T02:59:00.541Z,6.90
2023-04-28T03:01:27.558Z,6.90
2023-04-28T03:03:54.728Z,6.90
2023-04-28T03:06:22.063Z,6.90
2023-04-28T03:08:49.016Z,6.90
2023-04-28T03:11:16.204Z,6.90
2023-04-28T03:13:43.141Z,6.90
2023-04-28T03:16:10.092Z,6.90
2023-04-28T03:18:37.048Z,6.90
2023-04-28T03:21:04.362Z,6.90
2023-04-28T03:23:31.492Z,6.90
2023-04-28T03:25:58.437Z,6.90
2023-04-28T03:28:25.390Z,6.90
2023-04-28T03:30:52.295Z,6.90
2023-04-28T03:33:19.432Z,6.90
2023-04-28T03:35:46.568Z,7.00
2023-04-28T03:38:13.526Z,6.90
2023-04-28T03:40:40.923Z,7.00
2023-04-28T03:43:07.974Z,6.90
2023-04-28T03:45:35.379Z,7.00
2023-04-28T03:48:02.696Z,6.90
2023-04-28T03:50:29.695Z,7.00
2023-04-28T03:52:56.639Z,7.00
2023-04-28T03:55:23.957Z,7.00
2023-04-28T03:57:50.924Z,7.00
2023-04-28T04:00:18.310Z,7.00
2023-04-28T04:02:45.644Z,7.00
2023-04-28T04:05:13.083Z,6.90
2023-04-28T04:07:40.427Z,6.90
2023-04-28T04:10:07.911Z,7.00
2023-04-28T04:12:34.827Z,6.90
2023-04-28T04:15:01.967Z,6.90
2023-04-28T04:17:29.388Z,6.90
2023-04-28T04:19:56.444Z,7.00
2023-04-28T04:22:23.667Z,6.90
2023-04-28T04:24:51.202Z,6.90
2023-04-28T04:27:18.204Z,7.00
2023-04-28T04:29:45.259Z,6.90
2023-04-28T04:32:13.351Z,6.90
2023-04-28T04:34:40.465Z,6.90
2023-04-28T04:37:07.392Z,6.90
2023-04-28T04:39:34.360Z,6.90
2023-04-28T04:42:10.161Z,7.00
2023-04-28T04:44:44.039Z,7.00
2023-04-28T04:47:11.219Z,6.90
2023-04-28T04:49:38.224Z,7.00
2023-04-28T04:52:06.880Z,7.00
2023-04-28T04:54:33.849Z,7.00
2023-04-28T04:57:01.933Z,6.90
2023-04-28T04:59:29.037Z,7.00
2023-04-28T05:01:57.027Z,7.00
2023-04-28T05:04:24.357Z,7.00
2023-04-28T05:06:51.669Z,7.00
2023-04-28T05:09:18.856Z,7.00
2023-04-28T05:11:46.460Z,7.00
2023-04-28T05:14:13.408Z,6.90
2023-04-28T05:16:41.918Z,7.00
2023-04-28T05:19:09.083Z,7.00
2023-04-28T05:21:36.025Z,7.00
2023-04-28T05:24:02.970Z,7.00
2023-04-28T05:26:30.194Z,7.00
2023-04-28T05:28:57.418Z,7.00
2023-04-28T05:31:24.599Z,7.00
2023-04-28T05:33:52.258Z,7.10
2023-04-28T05:36:19.466Z,7.10
2023-04-28T05:38:46.999Z,7.00
2023-04-28T05:41:13.915Z,7.00
2023-04-28T05:43:41.589Z,7.10
2023-04-28T05:46:18.146Z,7.10
2023-04-28T05:48:55.703Z,7.10
2023-04-28T05:51:22.771Z,7.10
2023-04-28T05:53:49.679Z,7.10
2023-04-28T05:56:17.208Z,7.10
2023-04-28T05:58:49.619Z,7.20
2023-04-28T06:01:17.470Z,7.20
2023-04-28T06:03:45.523Z,7.20
2023-04-28T06:06:13.106Z,7.20
2023-04-28T06:08:40.225Z,7.20
2023-04-28T06:11:07.276Z,7.30
2023-04-28T06:13:34.219Z,7.30
2023-04-28T06:16:01.403Z,7.40
2023-04-28T06:18:32.615Z,7.40
2023-04-28T06:20:59.822Z,7.40
2023-04-28T06:23:26.887Z,7.50
2023-04-28T06:25:54.167Z,7.50
2023-04-28T06:28:21.289Z,7.50
2023-04-28T06:30:48.226Z,7.60
2023-04-28T06:33:15.204Z,7.60
2023-04-28T06:35:42.457Z,7.70
2023-04-28T06:38:09.495Z,7.70
2023-04-28T06:40:36.678Z,7.80
2023-04-28T06:43:04.274Z,7.80
2023-04-28T06:45:31.304Z,7.80
2023-04-28T06:47:58.324Z,7.80
2023-04-28T06:50:25.421Z,7.90
2023-04-28T06:52:52.413Z,7.90
2023-04-28T06:55:19.567Z,8.00
2023-04-28T06:57:46.915Z,7.90
2023-04-28T07:00:14.574Z,8.00
2023-04-28T07:02:42.020Z,8.10
2023-04-28T07:05:09.568Z,8.20
2023-04-28T07:07:39.049Z,8.20
2023-04-28T07:10:07.141Z,8.20
2023-04-28T07:12:34.261Z,8.30
2023-04-28T07:15:01.175Z,8.40
2023-04-28T07:17:28.141Z,8.50
2023-04-28T07:19:55.124Z,8.70
2023-04-28T07:22:22.051Z,8.80
2023-04-28T07:24:49.139Z,8.80
2023-04-28T07:27:16.287Z,8.80
2023-04-28T07:29:43.260Z,8.90
2023-04-28T07:32:10.928Z,8.90
2023-04-28T07:34:38.084Z,9.00
2023-04-28T07:37:05.086Z,9.10
2023-04-28T07:39:34.145Z,9.20
2023-04-28T07:42:04.451Z,9.20
2023-04-28T07:44:31.877Z,9.30
2023-04-28T07:47:00.899Z,9.30
2023-04-28T07:49:30.021Z,9.40
2023-04-28T07:51:57.131Z,9.40
2023-04-28T07:54:25.398Z,9.40
2023-04-28T07:56:52.677Z,9.50
2023-04-28T07:59:19.827Z,9.50
2023-04-28T08:01:47.005Z,9.60
2023-04-28T08:04:14.452Z,9.60
2023-04-28T08:06:42.257Z,9.60
2023-04-28T08:09:09.533Z,9.60
2023-04-28T08:11:36.484Z,9.70
2023-04-28T08:14:03.665Z,9.80
2023-04-28T08:16:31.509Z,9.80
2023-04-28T08:18:59.868Z,9.90
2023-04-28T08:21:27.192Z,10.00
2023-04-28T08:23:54.264Z,10.10
2023-04-28T08:26:21.560Z,10.20
2023-04-28T08:28:48.525Z,10.30
2023-04-28T08:31:15.540Z,10.30
2023-04-28T08:33:44.848Z,10.40
2023-04-28T08:36:18.286Z,10.40
2023-04-28T08:38:46.162Z,10.50
2023-04-28T08:41:15.678Z,10.60
2023-04-28T08:43:43.928Z,10.70
2023-04-28T08:46:11.308Z,10.80
2023-04-28T08:48:45.161Z,10.80
2023-04-28T08:51:17.897Z,10.80
2023-04-28T08:56:25.293Z,10.90
2023-04-28T08:58:53.537Z,10.90
2023-04-28T09:01:20.500Z,11.10
2023-04-28T09:03:49.554Z,11.20
2023-04-28T09:06:16.807Z,11.30
2023-04-28T09:08:43.909Z,11.30
2023-04-28T09:11:13.780Z,11.40
2023-04-28T09:13:41.439Z,11.90
2023-04-28T09:16:08.752Z,12.30
2023-04-28T09:18:35.835Z,12.70
2023-04-28T09:21:10.046Z,13.30
2023-04-28T09:23:50.861Z,13.90
2023-04-28T09:26:18.252Z,14.20
2023-04-28T09:28:45.375Z,14.60
2023-04-28T09:31:27.346Z,14.30
2023-04-28T09:33:58.400Z,13.80
2023-04-28T09:36:31.615Z,13.20
2023-04-28T09:39:00.190Z,12.70
2023-04-28T09:41:43.948Z,12.20
2023-04-28T09:44:17.635Z,12.50
2023-04-28T09:46:46.133Z,12.80
2023-04-28T09:49:13.758Z,12.60
2023-04-28T09:51:41.768Z,12.30
2023-04-28T09:54:08.713Z,12.80
2023-04-28T09:56:40.834Z,13.40
2023-04-28T09:59:08.365Z,13.50
2023-04-28T10:01:41.073Z,13.40
2023-04-28T10:04:09.025Z,12.90
2023-04-28T10:06:39.328Z,12.90
2023-04-28T10:09:07.421Z,12.80
2023-04-28T10:11:34.937Z,12.90
2023-04-28T10:14:01.853Z,12.90
2023-04-28T10:16:31.540Z,12.80
2023-04-28T10:18:58.848Z,12.60
2023-04-28T10:21:27.994Z,12.20
2023-04-28T10:24:22.664Z,12.20
2023-04-28T10:27:09.615Z,12.20
2023-04-28T10:29:36.780Z,12.10
2023-04-28T10:32:26.615Z,12.10
2023-04-28T10:34:53.809Z,12.10
2023-04-28T10:37:21.532Z,12.10
2023-04-28T10:40:26.056Z,12.20
2023-04-28T10:42:56.726Z,12.20
2023-04-28T10:45:59.688Z,12.40
2023-04-28T10:48:26.807Z,12.40
2023-04-28T10:51:12.991Z,12.20
2023-04-28T10:53:49.584Z,12.00
2023-04-28T10:56:17.038Z,12.00
2023-04-28T10:58:49.125Z,11.90
2023-04-28T11:01:22.337Z,11.80
2023-04-28T11:04:00.305Z,11.70
2023-04-28T11:06:36.259Z,11.60
2023-04-28T11:09:15.610Z,11.50
2023-04-28T11:12:00.993Z,11.60
2023-04-28T11:14:36.223Z,11.60
2023-04-28T11:17:15.818Z,11.70
2023-04-28T11:19:45.344Z,11.80
2023-04-28T11:22:21.116Z,11.90
2023-04-28T11:24:58.676Z,12.00
2023-04-28T11:27:29.997Z,12.10
2023-04-28T11:29:57.342Z,12.10
2023-04-28T11:32:32.944Z,12.20
2023-04-28T11:35:00.293Z,12.30
2023-04-28T11:37:27.376Z,12.50
2023-04-28T11:39:54.752Z,12.60
2023-04-28T11:42:21.745Z,12.50
2023-04-28T11:44:53.239Z,12.60
2023-04-28T11:47:31.519Z,12.50
2023-04-28T11:49:59.059Z,12.40
2023-04-28T11:52:27.665Z,12.30
2023-04-28T11:55:01.097Z,12.20
2023-04-28T11:57:28.409Z,12.30
2023-04-28T12:00:19.600Z,12.30
2023-04-28T12:02:47.151Z,12.20
2023-04-28T12:05:14.730Z,12.10
2023-04-28T12:07:44.240Z,12.10
2023-04-28T12:10:18.914Z,12.00
2023-04-28T12:12:52.603Z,11.90
2023-04-28T12:16:06.060Z,11.80
2023-04-28T12:18:12.046Z,11.80
2023-04-28T12:20:39.560Z,11.60
2023-04-28T12:23:08.136Z,11.50
2023-04-28T12:25:44.636Z,11.50
2023-04-28T12:28:11.732Z,11.40
2023-04-28T12:30:44.822Z,11.40
2023-04-28T12:33:25.581Z,11.60
2023-04-28T12:35:55.204Z,12.10
2023-04-28T12:38:25.800Z,12.60
2023-04-28T12:40:53.385Z,12.70
2023-04-28T12:43:23.420Z,12.90
2023-04-28T12:45:53.330Z,13.10
2023-04-28T12:48:20.792Z,13.20
2023-04-28T12:50:47.685Z,13.00
2023-04-28T12:53:14.849Z,12.80
2023-04-28T12:55:42.204Z,12.70
2023-04-28T12:58:09.090Z,12.50
2023-04-28T13:00:36.298Z,12.30
2023-04-28T13:03:03.412Z,12.10
2023-04-28T13:05:32.303Z,12.00
2023-04-28T13:07:59.725Z,11.80
2023-04-28T13:10:27.021Z,11.80
2023-04-28T13:12:53.932Z,11.80
2023-04-28T13:15:21.111Z,11.80
2023-04-28T13:17:48.860Z,11.90
2023-04-28T13:20:16.018Z,12.10
2023-04-28T13:22:42.959Z,12.10
2023-04-28T13:25:10.215Z,12.10
2023-04-28T13:27:37.918Z,12.00
2023-04-28T13:30:06.053Z,12.00
2023-04-28T13:32:33.644Z,12.00
2023-04-28T13:35:00.796Z,12.50
2023-04-28T13:37:27.974Z,13.20
2023-04-28T13:39:54.896Z,13.50
2023-04-28T13:42:21.820Z,13.70
2023-04-28T13:44:49.437Z,13.70
2023-04-28T13:47:16.495Z,13.60
2023-04-28T13:49:43.636Z,13.50
2023-04-28T13:52:10.762Z,13.50
2023-04-28T13:54:38.156Z,13.50
2023-04-28T13:57:05.158Z,13.20
2023-04-28T13:59:32.463Z,13.10
2023-04-28T14:01:59.570Z,12.80
2023-04-28T14:04:26.624Z,12.70
2023-04-28T14:06:53.823Z,12.60
2023-04-28T14:09:20.749Z,12.50
2023-04-28T14:11:47.759Z,12.40
2023-04-28T14:14:14.802Z,12.40
2023-04-28T14:16:41.917Z,12.30
2023-04-28T14:19:09.074Z,12.40
2023-04-28T14:21:37.179Z,12.40
2023-04-28T14:24:04.383Z,12.60
2023-04-28T14:26:31.333Z,12.80
2023-04-28T14:28:58.920Z,13.10
2023-04-28T14:31:25.983Z,12.90
2023-04-28T14:33:52.990Z,12.90
2023-04-28T14:36:20.192Z,12.60
2023-04-28T14:38:47.625Z,12.50
2023-04-28T14:41:14.613Z,12.50
2023-04-28T14:43:41.536Z,12.30
2023-04-28T14:46:08.821Z,12.30
2023-04-28T14:48:37.024Z,12.30
2023-04-28T14:51:04.244Z,12.20
2023-04-28T14:53:32.013Z,12.20
2023-04-28T14:56:07.528Z,12.10
2023-04-28T14:58:44.590Z,12.20
2023-04-28T15:01:11.859Z,12.00
2023-04-28T15:03:39.080Z,12.00
2023-04-28T15:06:06.430Z,11.90
2023-04-28T15:08:33.600Z,11.80
2023-04-28T15:11:00.581Z,11.90
2023-04-28T15:13:28.793Z,11.80
2023-04-28T15:15:56.400Z,11.60
2023-04-28T15:18:24.117Z,11.40
2023-04-28T15:20:51.744Z,11.20
2023-04-28T15:23:19.919Z,11.10
2023-04-28T15:25:47.369Z,11.00
2023-04-28T15:28:14.276Z,11.00
2023-04-28T15:30:41.444Z,10.80
2023-04-28T15:33:08.417Z,10.60
2023-04-28T15:35:35.836Z,10.40
2023-04-28T15:38:02.834Z,10.40
2023-04-28T15:40:29.727Z,10.20
2023-04-28T15:42:56.801Z,10.20
2023-04-28T15:45:23.804Z,10.10
2023-04-28T15:47:51.292Z,10.10
2023-04-28T15:50:20.449Z,10.10
2023-04-28T15:52:50.273Z,10.00
2023-04-28T15:55:22.012Z,10.10
2023-04-28T15:57:49.484Z,10.10
2023-04-28T16:00:16.751Z,10.10
2023-04-28T16:02:44.693Z,10.00
2023-04-28T16:05:12.333Z,10.00
2023-04-28T16:07:41.233Z,9.90
2023-04-28T16:10:10.086Z,9.90
2023-04-28T16:12:37.577Z,9.90
2023-04-28T16:15:05.871Z,9.90
2023-04-28T16:17:35.891Z,9.90
2023-04-28T16:20:05.337Z,9.90
2023-04-28T16:22:32.528Z,9.80
2023-04-28T16:25:04.186Z,9.70
2023-04-28T16:27:31.951Z,9.70
2023-04-28T16:29:59.670Z,9.60
2023-04-28T16:32:27.034Z,9.60
2023-04-28T16:34:56.211Z,9.60
2023-04-28T16:37:23.115Z,9.60
2023-04-28T16:39:50.240Z,9.50
2023-04-28T16:42:17.396Z,9.50
2023-04-28T16:44:44.389Z,9.40
2023-04-28T16:47:14.381Z,9.40
2023-04-28T16:49:41.353Z,9.40
2023-04-28T16:52:09.024Z,9.40
2023-04-28T16:54:36.051Z,9.40
2023-04-28T16:57:04.191Z,9.40
2023-04-28T16:59:31.228Z,9.40
2023-04-28T17:01:59.146Z,9.30
2023-04-28T17:04:27.191Z,9.30
2023-04-28T17:06:54.471Z,9.10
2023-04-28T17:09:22.528Z,9.10
2023-04-28T17:11:50.262Z,9.00
2023-04-28T17:14:17.325Z,9.10
2023-04-28T17:16:44.827Z,9.10
2023-04-28T17:19:12.729Z,9.00
2023-04-28T17:21:39.903Z,9.00
2023-04-28T17:24:07.201Z,8.90
2023-04-28T17:26:34.229Z,9.00
2023-04-28T17:29:02.322Z,9.00
2023-04-28T17:31:30.021Z,8.90
2023-04-28T17:33:59.640Z,8.90
2023-04-28T17:36:27.418Z,8.90
2023-04-28T17:38:55.591Z,8.90
2023-04-28T17:41:23.226Z,8.80
2023-04-28T17:43:51.949Z,8.90
2023-04-28T17:46:19.080Z,8.80
2023-04-28T17:48:46.528Z,8.80
2023-04-28T17:51:13.517Z,8.80
2023-04-28T17:53:40.578Z,8.80
2023-04-28T17:56:08.354Z,8.80
2023-04-28T17:58:36.694Z,8.80
2023-04-28T18:01:05.090Z,8.70
2023-04-28T18:03:33.803Z,8.70
2023-04-28T18:06:01.440Z,8.80
2023-04-28T18:08:28.478Z,8.70
2023-04-28T18:10:56.486Z,8.60
2023-04-28T18:13:23.488Z,8.70
2023-04-28T18:15:50.488Z,8.70
2023-04-28T18:18:17.653Z,8.60
2023-04-28T18:20:44.770Z,8.70
2023-04-28T18:23:11.703Z,8.70
2023-04-28T18:25:38.867Z,8.70
2023-04-28T18:28:06.242Z,8.70
2023-04-28T18:30:38.810Z,8.70
2023-04-28T18:33:07.553Z,8.70
2023-04-28T18:35:35.029Z,8.60
2023-04-28T18:38:02.060Z,8.60
2023-04-28T18:40:37.547Z,8.50
2023-04-28T18:43:08.082Z,8.50
2023-04-28T18:45:37.421Z,8.40
2023-04-28T18:48:04.894Z,8.30
2023-04-28T18:50:33.069Z,8.30
2023-04-28T18:53:04.584Z,8.30
2023-04-28T18:55:34.412Z,8.30
2023-04-28T18:58:04.679Z,8.20
2023-04-28T19:00:34.638Z,8.10
2023-04-28T19:03:03.881Z,8.10
2023-04-28T19:05:30.957Z,8.10
2023-04-28T19:07:58.081Z,8.10
2023-04-28T19:10:25.058Z,8.00
2023-04-28T19:12:52.038Z,8.00
2023-04-28T19:15:19.472Z,7.90
2023-04-28T19:17:46.818Z,8.00
2023-04-28T19:20:14.005Z,8.00
2023-04-28T19:22:41.569Z,7.90
2023-04-28T19:25:09.427Z,7.90
2023-04-28T19:27:40.854Z,7.90
2023-04-28T19:30:11.128Z,7.80
2023-04-28T19:32:38.935Z,7.80
2023-04-28T19:35:07.275Z,7.70
2023-04-28T19:37:35.196Z,7.70
2023-04-28T19:40:07.194Z,7.70
2023-04-28T19:42:37.524Z,7.70
2023-04-28T19:45:05.066Z,7.60
2023-04-28T19:47:34.800Z,7.60
2023-04-28T19:50:02.185Z,7.70
2023-04-28T19:52:29.274Z,7.60
2023-04-28T19:54:57.280Z,7.60
2023-04-28T19:57:24.404Z,7.60
2023-04-28T19:59:51.541Z,7.60
2023-04-28T20:02:21.228Z,7.60
2023-04-28T20:04:49.362Z,7.60
2023-04-28T20:07:16.408Z,7.60
2023-04-28T20:09:44.478Z,7.60
2023-04-28T20:12:11.642Z,7.50
2023-04-28T20:14:38.634Z,7.50
2023-04-28T20:17:06.249Z,7.50
2023-04-28T20:19:33.357Z,7.40
2023-04-28T20:22:04.870Z,7.40
2023-04-28T20:24:34.819Z,7.50
2023-04-28T20:27:02.439Z,7.40
2023-04-28T20:29:35.061Z,7.40
2023-04-28T20:32:03.662Z,7.30
2023-04-28T20:34:31.781Z,7.40
2023-04-28T20:36:59.677Z,7.40
2023-04-28T20:39:26.963Z,7.30
2023-04-28T20:41:53.882Z,7.30
2023-04-28T20:44:20.830Z,7.30
2023-04-28T20:46:47.806Z,7.30
2023-04-28T20:49:15.256Z,7.30
2023-04-28T20:51:45.322Z,7.20
2023-04-28T20:54:12.948Z,7.20
2023-04-28T20:56:42.083Z,7.20
2023-04-28T20:59:09.120Z,7.10
2023-04-28T21:01:36.063Z,7.10
2023-04-28T21:04:03.413Z,7.00
2023-04-28T21:06:30.524Z,7.00
2023-04-28T21:08:57.495Z,7.00
2023-04-28T21:11:25.739Z,6.90
2023-04-28T21:13:52.648Z,6.90
2023-04-28T21:16:21.674Z,6.80
2023-04-28T21:18:49.925Z,6.80
2023-04-28T21:21:16.980Z,6.80
2023-04-28T21:23:44.375Z,6.80
2023-04-28T21:26:11.656Z,6.80
2023-04-28T21:28:40.019Z,6.80
2023-04-28T21:31:07.206Z,6.80
2023-04-28T21:33:34.523Z,6.80
2023-04-28T21:36:08.094Z,6.80
2023-04-28T21:38:36.908Z,6.80
2023-04-28T21:41:04.156Z,6.70
2023-04-28T21:43:31.288Z,6.70
2023-04-28T21:45:58.577Z,6.60
2023-04-28T21:48:25.538Z,6.60
2023-04-28T21:50:52.446Z,6.60
2023-04-28T21:53:20.655Z,6.60
2023-04-28T21:55:47.657Z,6.60
2023-04-28T21:58:15.295Z,6.50
2023-04-28T22:00:48.614Z,6.50
2023-04-28T22:03:16.272Z,6.40
2023-04-28T22:05:44.743Z,6.30
2023-04-28T22:08:12.299Z,6.30
2023-04-28T22:10:39.515Z,6.20
2023-04-28T22:13:06.988Z,6.20
2023-04-28T22:15:34.121Z,6.10
2023-04-28T22:18:01.339Z,6.10
2023-04-28T22:20:28.578Z,6.10
2023-04-28T22:22:55.704Z,6.10
2023-04-28T22:25:22.822Z,6.20
2023-04-28T22:27:49.972Z,6.20
2023-04-28T22:30:17.120Z,6.20
2023-04-28T22:32:44.930Z,6.20
2023-04-28T22:35:16.937Z,6.20
2023-04-28T22:37:44.224Z,6.30
2023-04-28T22:40:11.510Z,6.30
2023-04-28T22:42:40.206Z,6.30
2023-04-28T22:45:07.964Z,6.30
2023-04-28T22:47:35.678Z,6.30
2023-04-28T22:50:06.135Z,6.30
2023-04-28T22:52:34.320Z,6.20
2023-04-28T22:55:01.651Z,6.20
2023-04-28T22:57:29.145Z,6.10
2023-04-28T22:59:56.279Z,6.10
2023-04-28T23:02:23.556Z,6.10
2023-04-28T23:04:51.184Z,6.10
2023-04-28T23:07:18.508Z,6.10
2023-04-28T23:09:45.568Z,6.10
2023-04-28T23:12:12.481Z,6.10
2023-04-28T23:14:39.436Z,6.10
2023-04-28T23:17:06.444Z,6.10
2023-04-28T23:19:35.560Z,6.00
2023-04-28T23:22:02.555Z,6.00
2023-04-28T23:24:29.558Z,6.00
2023-04-28T23:26:56.744Z,6.00
2023-04-28T23:29:23.973Z,6.00
2023-04-28T23:31:54.664Z,6.00
2023-04-28T23:34:23.377Z,6.00
2023-04-28T23:36:50.921Z,5.90
2023-04-28T23:39:17.915Z,5.90
2023-04-28T23:41:44.855Z,5.90
2023-04-28T23:44:11.936Z,5.90
2023-04-28T23:46:39.005Z,5.90
2023-04-28T23:49:05.967Z,5.90
2023-04-28T23:51:33.021Z,5.90
2023-04-28T23:54:00.141Z,5.90
2023-04-28T23:56:27.377Z,5.90
2023-04-28T23:58:54.573Z,5.90
